Graz, Austria

1:09 AM CET on March 06, 2015 (GMT +0100)
ISTEIERM17 | Change Station
CLOSE
Current Station
Personal Weather Station
Location: Graz-Pirka, STEIERMARK
Elevation: 1152 ft
Nearby Weather Stations
Active Advisory: Wind english:

Elev 1152 ft 47.00 °N, 15.39 °E | Updated 4 minutes ago

Clear
Clear
37.6 °F
Feels Like 35 °F
N
3.3
Wind Variable Wind from WSW
Gusts 3.4 mph

Today
High -- | Low -- °F
--% Chance of Precip.
Yesterday
High -- | Low -- °F
Precip. -- in
6:29 AM 5:50 PM
Full, 100% visible
Pressure 30.45 in
Visibility 6.2 miles
Clouds
Windchill 35 °F
Dew Point 20 °F
Humidity 49%
Rainfall in
Snow Depth Not available.
UV 0.0 out of 12
Pollen Not available.
Air Quality Not available.
Flu Activity Not available.
METAR LOWG 052350Z AUTO 02010KT 9999 NCD 02/M06 Q1031

More Conditions Fewer Conditions

Pressure 30.45 in
Visibility 6.2 miles
Clouds
Windchill 35 °F
Dew Point 20 °F
Humidity 49%
Rainfall in
Snow Depth Not available.
UV 0.0 out of 12
Pollen Not available.
Air Quality Not available.
Flu Activity Not available.
METAR LOWG 052350Z AUTO 02010KT 9999 NCD 02/M06 Q1031

More Conditions Fewer Conditions

10-Day Weather Forecast

Almanac

Astronomy

Mar. 06, 2015 Rise Set
Actual Time
Civil Twilight
Nautical Twilight
Astronomical Twilight
Moon
Length of Visible Light
Length of Day
Tomorrow will be .
, % of the Moon is Illuminated

Today's Extremes

Country Highs Country Lows

Community

WunderPhotos

Upload Photos

1,803,066 photos uploaded!

WunderBlogs® & News

Nearby

Air Quality

  Air Quality AQ Index Pollutant
Not available.

Snow Depth

Station Depth Elevation

Earthquake Activity

City Distance Mag. Time & Date
Minimum magnitude displayed is 2.5.

Coastal Water Temperatures

Place Temperature

Nearby Weather Stations